createdAt,value
2018-12-27T00:00:06.301Z,3.30
2018-12-27T00:05:11.163Z,3.40
2018-12-27T00:10:15.962Z,3.20
2018-12-27T00:15:24.141Z,3.40
2018-12-27T00:20:29.259Z,3.30
2018-12-27T00:25:34.463Z,3.10
2018-12-27T00:30:39.718Z,3.70
2018-12-27T00:35:44.547Z,3.60
2018-12-27T00:40:49.293Z,4.20
2018-12-27T00:45:54.191Z,4.50
2018-12-27T00:50:59.014Z,4.30
2018-12-27T00:56:03.906Z,4.50
2018-12-27T01:01:09.084Z,4.10
2018-12-27T01:06:14.022Z,4.30
2018-12-27T01:11:18.993Z,4.00
2018-12-27T01:16:23.721Z,4.00
2018-12-27T01:21:28.489Z,3.30
2018-12-27T01:26:33.173Z,3.30
2018-12-27T01:31:37.949Z,3.70
2018-12-27T01:36:42.879Z,3.70
2018-12-27T01:41:47.625Z,3.40
2018-12-27T01:46:52.474Z,3.40
2018-12-27T01:51:57.309Z,3.20
2018-12-27T01:57:02.098Z,3.30
2018-12-27T02:02:06.844Z,3.50
2018-12-27T02:07:11.598Z,3.40
2018-12-27T02:12:16.308Z,3.60
2018-12-27T02:17:21.183Z,3.50
2018-12-27T02:22:26.264Z,3.70
2018-12-27T02:27:31.142Z,3.80
2018-12-27T02:32:35.874Z,4.00
2018-12-27T02:37:40.783Z,3.90
2018-12-27T02:42:45.735Z,3.40
2018-12-27T02:47:50.554Z,3.40
2018-12-27T02:52:55.481Z,3.40
2018-12-27T02:58:00.296Z,3.70
2018-12-27T03:03:07.134Z,3.30
2018-12-27T03:08:12.090Z,3.30
2018-12-27T03:13:16.973Z,3.40
2018-12-27T03:18:21.847Z,3.30
2018-12-27T03:23:26.662Z,3.20
2018-12-27T03:28:31.334Z,3.30
2018-12-27T03:33:36.103Z,3.10
2018-12-27T03:38:40.913Z,3.00
2018-12-27T03:43:45.841Z,3.40
2018-12-27T03:48:50.578Z,3.40
2018-12-27T03:53:55.342Z,3.60
2018-12-27T03:59:00.173Z,3.50
2018-12-27T04:04:04.939Z,3.80
2018-12-27T04:09:09.917Z,3.30
2018-12-27T04:14:14.696Z,3.00
2018-12-27T04:19:19.492Z,2.70
2018-12-27T04:24:24.817Z,2.50
2018-12-27T04:29:29.520Z,2.40
2018-12-27T04:34:34.534Z,2.90
2018-12-27T04:39:39.312Z,2.50
2018-12-27T04:44:44.046Z,2.50
2018-12-27T04:49:48.857Z,2.50
2018-12-27T04:54:53.803Z,2.40
2018-12-27T04:59:58.560Z,2.60
2018-12-27T05:05:03.440Z,2.70
2018-12-27T05:10:08.119Z,3.40
2018-12-27T05:15:12.907Z,3.00
2018-12-27T05:20:17.712Z,3.00
2018-12-27T05:25:22.440Z,3.00
2018-12-27T05:30:27.137Z,2.70
2018-12-27T05:35:31.898Z,2.30
2018-12-27T05:40:36.779Z,2.30
2018-12-27T05:45:41.478Z,2.30
2018-12-27T05:50:46.224Z,2.10
2018-12-27T05:55:51.128Z,2.10
2018-12-27T06:00:55.813Z,2.20
2018-12-27T06:06:00.800Z,1.90
2018-12-27T06:11:06.369Z,1.70
2018-12-27T06:16:13.164Z,1.90
2018-12-27T06:21:18.015Z,1.80
2018-12-27T06:26:22.736Z,1.80
2018-12-27T06:31:27.583Z,1.80
2018-12-27T06:36:32.445Z,2.50
2018-12-27T06:41:37.569Z,2.70
2018-12-27T06:46:42.751Z,2.00
2018-12-27T06:51:47.719Z,1.70
2018-12-27T06:56:52.815Z,1.50
2018-12-27T07:01:57.689Z,1.90
2018-12-27T07:07:02.736Z,1.80
2018-12-27T07:12:07.918Z,6.50
2018-12-27T07:17:13.194Z,1.90
2018-12-27T07:22:18.320Z,1.80
2018-12-27T07:27:24.007Z,1.70
2018-12-27T07:32:28.799Z,2.60
2018-12-27T07:37:33.994Z,1.50
2018-12-27T07:42:39.126Z,2.10
2018-12-27T07:47:45.699Z,2.20
2018-12-27T07:52:51.195Z,2.00
2018-12-27T07:57:58.835Z,2.00
2018-12-27T08:03:04.876Z,2.00
2018-12-27T08:08:10.336Z,2.10
2018-12-27T08:13:15.662Z,2.50
2018-12-27T08:18:21.520Z,2.30
2018-12-27T08:23:26.756Z,2.30
2018-12-27T08:28:32.053Z,2.90
2018-12-27T08:33:37.054Z,2.80
2018-12-27T08:38:42.763Z,2.60
2018-12-27T08:43:51.852Z,3.00
2018-12-27T08:48:59.538Z,2.70
2018-12-27T08:54:04.784Z,2.50
2018-12-27T08:59:09.892Z,3.30
2018-12-27T09:04:14.935Z,3.50
2018-12-27T09:09:20.029Z,3.90
2018-12-27T09:14:25.189Z,3.90
2018-12-27T09:19:32.218Z,4.50
2018-12-27T09:24:37.369Z,3.90
2018-12-27T09:29:42.777Z,4.20
2018-12-27T09:34:47.870Z,6.00
2018-12-27T09:39:53.397Z,5.90
2018-12-27T09:44:59.429Z,6.70
2018-12-27T09:50:09.331Z,6.50
2018-12-27T09:55:15.069Z,7.90
2018-12-27T10:00:20.556Z,7.90
2018-12-27T10:05:25.853Z,7.70
2018-12-27T10:10:31.810Z,7.20
2018-12-27T10:15:37.680Z,6.80
2018-12-27T10:20:46.757Z,6.60
2018-12-27T10:25:54.999Z,6.90
2018-12-27T10:31:01.925Z,6.50
2018-12-27T10:36:07.163Z,6.80
2018-12-27T10:41:11.751Z,4.10
2018-12-27T10:46:16.767Z,8.70
2018-12-27T10:51:21.593Z,8.10
2018-12-27T10:56:27.099Z,7.50
2018-12-27T11:01:31.794Z,8.00
2018-12-27T11:06:36.409Z,9.00
2018-12-27T11:11:40.938Z,9.00
2018-12-27T11:16:45.572Z,9.40
2018-12-27T11:21:50.160Z,9.20
2018-12-27T11:26:54.767Z,8.20
2018-12-27T11:31:59.923Z,7.80
2018-12-27T11:37:06.077Z,7.30
2018-12-27T11:42:10.706Z,7.50
2018-12-27T11:47:15.374Z,7.40
2018-12-27T11:52:19.925Z,7.80
2018-12-27T11:57:24.570Z,9.00
2018-12-27T12:02:31.324Z,9.20
2018-12-27T12:07:35.720Z,8.90
2018-12-27T12:12:40.737Z,8.70
2018-12-27T12:17:45.622Z,8.60
2018-12-27T12:22:50.339Z,8.50
2018-12-27T12:27:55.038Z,8.80
2018-12-27T12:32:59.597Z,9.20
2018-12-27T12:38:04.680Z,9.70
2018-12-27T12:43:09.270Z,9.20
2018-12-27T12:48:14.215Z,9.40
2018-12-27T12:53:19.190Z,9.30
2018-12-27T12:58:23.750Z,9.20
2018-12-27T13:03:28.342Z,8.10
2018-12-27T13:08:32.930Z,8.00
2018-12-27T13:13:37.610Z,8.60
2018-12-27T13:18:47.226Z,8.50
2018-12-27T13:23:48.391Z,8.30
2018-12-27T13:28:53.623Z,8.90
2018-12-27T13:33:58.295Z,9.20
2018-12-27T13:39:04.157Z,8.50
2018-12-27T13:44:08.982Z,7.60
2018-12-27T13:49:13.516Z,7.70
2018-12-27T13:54:18.048Z,7.60
2018-12-27T13:59:22.541Z,7.90
2018-12-27T14:04:27.367Z,7.90
2018-12-27T14:09:32.001Z,8.40
2018-12-27T14:14:36.706Z,8.00
2018-12-27T14:19:41.310Z,7.90
2018-12-27T14:24:45.863Z,7.90
2018-12-27T14:29:50.409Z,7.70
2018-12-27T14:34:55.110Z,8.30
2018-12-27T14:39:59.651Z,8.70
2018-12-27T14:45:04.518Z,8.70
2018-12-27T14:50:09.146Z,8.30
2018-12-27T14:55:13.986Z,7.50
2018-12-27T15:00:18.877Z,7.00
2018-12-27T15:05:23.321Z,6.70
2018-12-27T15:10:28.190Z,7.10
2018-12-27T15:15:32.890Z,7.10
2018-12-27T15:20:37.515Z,7.10
2018-12-27T15:25:41.999Z,7.50
2018-12-27T15:30:46.648Z,7.80
2018-12-27T15:35:51.203Z,7.50
2018-12-27T15:40:55.942Z,7.40
2018-12-27T15:46:00.671Z,6.70
2018-12-27T15:51:05.439Z,7.10
2018-12-27T15:56:10.122Z,7.40
2018-12-27T16:01:14.814Z,7.30
2018-12-27T16:06:19.342Z,7.40
2018-12-27T16:11:24.026Z,7.50
2018-12-27T16:16:28.654Z,7.00
2018-12-27T16:21:33.239Z,6.60
2018-12-27T16:26:37.799Z,6.80
2018-12-27T16:31:42.333Z,7.20
2018-12-27T16:36:46.905Z,7.20
2018-12-27T16:41:51.747Z,6.40
2018-12-27T16:46:56.398Z,6.30
2018-12-27T16:52:01.014Z,6.00
2018-12-27T16:57:05.952Z,6.00
2018-12-27T17:02:10.587Z,6.20
2018-12-27T17:07:16.197Z,6.50
2018-12-27T17:12:21.531Z,5.90
2018-12-27T17:17:26.076Z,5.70
2018-12-27T17:22:31.034Z,6.10
2018-12-27T17:27:35.661Z,5.90
2018-12-27T17:32:40.554Z,5.50
2018-12-27T17:37:45.227Z,5.30
2018-12-27T17:42:49.763Z,5.50
2018-12-27T17:47:54.267Z,5.50
2018-12-27T17:52:58.910Z,5.30
2018-12-27T17:58:03.582Z,5.40
2018-12-27T18:03:08.158Z,5.30
2018-12-27T18:08:12.843Z,5.40
2018-12-27T18:13:17.449Z,5.50
2018-12-27T18:18:22.268Z,5.50
2018-12-27T18:23:27.056Z,5.20
2018-12-27T18:28:31.794Z,5.10
2018-12-27T18:33:36.454Z,5.20
2018-12-27T18:38:42.744Z,6.10
2018-12-27T18:43:47.550Z,6.50
2018-12-27T18:48:52.223Z,6.50
2018-12-27T18:53:56.930Z,6.50
2018-12-27T18:59:01.580Z,6.60
2018-12-27T19:04:06.142Z,6.60
2018-12-27T19:09:10.842Z,6.60
2018-12-27T19:14:15.492Z,6.80
2018-12-27T19:19:20.902Z,6.10
2018-12-27T19:24:26.368Z,6.50
2018-12-27T19:29:31.141Z,6.30
2018-12-27T19:34:36.121Z,5.60
2018-12-27T19:39:41.011Z,5.50
2018-12-27T19:44:45.886Z,5.70
2018-12-27T19:49:50.839Z,5.20
2018-12-27T19:54:55.430Z,4.90
2018-12-27T19:59:59.955Z,4.80
2018-12-27T20:05:05.218Z,5.10
2018-12-27T20:10:10.313Z,4.50
2018-12-27T20:15:15.209Z,4.80
2018-12-27T20:20:20.141Z,4.80
2018-12-27T20:25:24.920Z,4.60
2018-12-27T20:30:29.615Z,4.30
2018-12-27T20:35:35.723Z,4.30
2018-12-27T20:40:40.372Z,4.30
2018-12-27T20:45:45.267Z,5.40
2018-12-27T20:50:50.042Z,5.60
2018-12-27T20:55:54.723Z,5.40
2018-12-27T21:00:59.601Z,5.30
2018-12-27T21:06:04.642Z,5.20
2018-12-27T21:11:09.418Z,5.00
2018-12-27T21:16:14.067Z,5.50
2018-12-27T21:21:18.955Z,4.90
2018-12-27T21:26:23.721Z,4.70
2018-12-27T21:31:28.857Z,5.00
2018-12-27T21:36:33.776Z,4.80
2018-12-27T21:41:38.975Z,5.20
2018-12-27T21:46:43.606Z,5.20
2018-12-27T21:51:48.445Z,4.60
2018-12-27T21:56:53.376Z,5.30
2018-12-27T22:01:58.115Z,5.90
2018-12-27T22:07:02.742Z,6.10
2018-12-27T22:12:07.513Z,6.30
2018-12-27T22:17:12.182Z,6.00
2018-12-27T22:22:17.054Z,6.10
2018-12-27T22:27:22.170Z,5.40
2018-12-27T22:32:26.938Z,5.10
2018-12-27T22:37:31.635Z,4.50
2018-12-27T22:42:37.214Z,4.10
2018-12-27T22:47:42.747Z,4.10
2018-12-27T22:52:47.478Z,4.20
2018-12-27T22:57:52.064Z,4.40
2018-12-27T23:02:57.730Z,4.80
2018-12-27T23:08:02.498Z,5.20
2018-12-27T23:13:07.142Z,5.80
2018-12-27T23:18:12.030Z,5.90
2018-12-27T23:23:16.820Z,4.60
2018-12-27T23:28:22.084Z,4.20
2018-12-27T23:33:26.830Z,5.00
2018-12-27T23:38:31.428Z,4.60
2018-12-27T23:43:36.482Z,4.10
2018-12-27T23:48:41.019Z,4.20
2018-12-27T23:53:46.227Z,4.60
2018-12-27T23:58:50.762Z,4.70
